Private Wetterstation Sandau
Wetterdaten: Woche 16.07.12 - 22.07.12 (KW29)
Datum Zeit Temp. A. Feuchte A. Luftdruck Regen Wind Richtung Taupunkt Windchill
16.07.2012 00:00 14,9 C 72 % 1016,5 hPa 0,0 l/m 0,2 km/h (0 Bft) W-SW 9,9 C 14,9 C
16.07.2012 01:00 14,7 C 75 % 1017,0 hPa 0,0 l/m 4,0 km/h (1 Bft) W 10,4 C 14,7 C
16.07.2012 02:00 14,2 C 79 % 1017,5 hPa 0,0 l/m 5,1 km/h (1 Bft) W 10,5 C 14,2 C
16.07.2012 03:00 13,9 C 82 % 1017,8 hPa 0,0 l/m 9,4 km/h (2 Bft) W-SW 10,9 C 13,9 C
16.07.2012 04:00 13,6 C 83 % 1018,1 hPa 0,0 l/m 6,6 km/h (2 Bft) W 10,8 C 13,6 C
16.07.2012 05:00 13,0 C 85 % 1018,3 hPa 0,0 l/m 8,6 km/h (2 Bft) W-SW 10,5 C 13,0 C
16.07.2012 06:00 14,6 C 81 % 1018,9 hPa 0,0 l/m 10,3 km/h (2 Bft) W-SW 11,2 C 14,6 C
16.07.2012 07:00 15,7 C 75 % 1019,5 hPa 0,0 l/m 11,4 km/h (2 Bft) W 11,2 C 15,7 C
16.07.2012 08:00 15,4 C 75 % 1020,1 hPa 0,0 l/m 13,6 km/h (3 Bft) W-SW 11,0 C 15,4 C
16.07.2012 09:00 16,9 C 69 % 1020,4 hPa 0,0 l/m 10,5 km/h (2 Bft) W-NW 11,1 C 16,9 C
16.07.2012 10:00 19,0 C 60 % 1020,5 hPa 0,0 l/m 11,4 km/h (2 Bft) W-SW 11,0 C 19,0 C
16.07.2012 11:00 20,0 C 52 % 1020,4 hPa 0,0 l/m 11,3 km/h (2 Bft) W-SW 9,9 C 20,0 C
16.07.2012 12:00 20,0 C 48 % 1020,4 hPa 0,0 l/m 11,4 km/h (2 Bft) W 8,7 C 20,0 C
16.07.2012 13:00 16,3 C 64 % 1021,0 hPa 0,0 l/m 15,0 km/h (3 Bft) W-SW 9,4 C 16,3 C
16.07.2012 14:00 19,3 C 59 % 1020,3 hPa 1,6 l/m 13,0 km/h (3 Bft) SW 11,0 C 19,3 C
16.07.2012 15:00 17,5 C 70 % 1020,3 hPa 0,0 l/m 9,8 km/h (2 Bft) W-SW 11,8 C 17,5 C
16.07.2012 16:00 18,5 C 59 % 1020,1 hPa 0,0 l/m 11,9 km/h (2 Bft) W 10,2 C 18,5 C
16.07.2012 17:00 19,3 C 54 % 1019,7 hPa 0,0 l/m 12,5 km/h (3 Bft) W-SW 9,8 C 19,3 C
16.07.2012 18:00 18,0 C 62 % 1019,7 hPa 0,0 l/m 15,8 km/h (3 Bft) W-SW 10,5 C 18,0 C
16.07.2012 19:00 16,9 C 65 % 1019,6 hPa 0,0 l/m 15,3 km/h (3 Bft) W-SW 10,3 C 16,9 C
16.07.2012 20:00 14,6 C 79 % 1019,5 hPa 3,1 l/m 2,3 km/h (1 Bft) NO 11,0 C 14,6 C
16.07.2012 21:00 14,4 C 83 % 1019,1 hPa 0,0 l/m 3,7 km/h (1 Bft) S-SW 11,6 C 14,4 C
16.07.2012 22:00 14,6 C 84 % 1018,9 hPa 0,0 l/m 10,2 km/h (2 Bft) SW 11,8 C 14,6 C
16.07.2012 23:00 13,7 C 87 % 1018,4 hPa 1,6 l/m 11,4 km/h (2 Bft) SW 11,6 C 13,7 C
17.07.2012 00:00 13,5 C 88 % 1017,6 hPa 1,6 l/m 9,1 km/h (2 Bft) SW 11,6 C 13,5 C
17.07.2012 01:00 13,5 C 90 % 1016,8 hPa 0,5 l/m 9,5 km/h (2 Bft) S-SW 11,8 C 13,5 C
17.07.2012 02:00 13,4 C 90 % 1015,9 hPa 0,5 l/m 8,4 km/h (2 Bft) S-SW 11,8 C 13,4 C
17.07.2012 03:00 13,4 C 90 % 1015,0 hPa 0,0 l/m 9,8 km/h (2 Bft) W-SW 11,8 C 13,4 C
17.07.2012 04:00 13,5 C 91 % 1014,5 hPa 0,0 l/m 11,0 km/h (2 Bft) W-SW 12,0 C 13,5 C
17.07.2012 05:00 13,6 C 91 % 1014,4 hPa 0,0 l/m 8,8 km/h (2 Bft) SW 12,1 C 13,6 C
17.07.2012 06:00 13,7 C 91 % 1014,4 hPa 0,5 l/m 10,1 km/h (2 Bft) W-SW 12,2 C 13,7 C
17.07.2012 07:00 14,2 C 90 % 1014,7 hPa 0,0 l/m 6,7 km/h (2 Bft) W 12,7 C 14,2 C
17.07.2012 08:00 14,9 C 88 % 1015,2 hPa 0,0 l/m 7,5 km/h (2 Bft) W-NW 13,0 C 14,9 C
17.07.2012 09:00 16,7 C 83 % 1015,9 hPa 0,0 l/m 10,7 km/h (2 Bft) W 13,7 C 16,7 C
17.07.2012 10:00 17,3 C 77 % 1016,1 hPa 0,0 l/m 9,0 km/h (2 Bft) W-NW 13,3 C 17,3 C
17.07.2012 11:00 17,4 C 76 % 1016,4 hPa 1,6 l/m 4,3 km/h (1 Bft) N 13,1 C 17,4 C
17.07.2012 12:00 17,8 C 79 % 1016,7 hPa 0,0 l/m 5,5 km/h (1 Bft) NW 14,0 C 17,8 C
17.07.2012 13:00 19,2 C 74 % 1017,0 hPa 0,0 l/m 9,3 km/h (2 Bft) W 14,4 C 19,2 C
17.07.2012 14:00 21,2 C 62 % 1016,9 hPa 0,0 l/m 11,5 km/h (2 Bft) W-NW 13,5 C 21,2 C
17.07.2012 15:00 21,7 C 55 % 1016,9 hPa 0,0 l/m 10,0 km/h (2 Bft) W-NW 12,1 C 21,7 C
17.07.2012 16:00 18,1 C 74 % 1017,8 hPa 0,5 l/m 10,0 km/h (2 Bft) W-NW 13,4 C 18,1 C
17.07.2012 17:00 20,8 C 63 % 1017,5 hPa 0,0 l/m 11,1 km/h (2 Bft) W-NW 13,5 C 20,8 C
17.07.2012 18:00 20,9 C 56 % 1017,4 hPa 0,0 l/m 12,9 km/h (3 Bft) W-NW 11,8 C 20,9 C
17.07.2012 19:00 21,3 C 53 % 1017,6 hPa 0,0 l/m 9,6 km/h (2 Bft) NW 11,4 C 21,3 C
17.07.2012 20:00 19,6 C 58 % 1017,9 hPa 0,0 l/m 3,4 km/h (1 Bft) NW 11,2 C 19,6 C
17.07.2012 21:00 16,5 C 70 % 1018,1 hPa 0,0 l/m 1,2 km/h (1 Bft) W-NW 11,0 C 16,5 C
17.07.2012 22:00 15,0 C 77 % 1018,1 hPa 0,0 l/m 0,0 km/h (0 Bft) N 11,1 C 15,0 C
17.07.2012 23:00 15,1 C 80 % 1018,2 hPa 0,5 l/m 3,1 km/h (1 Bft) W-SW 11,6 C 15,1 C
18.07.2012 00:00 14,9 C 83 % 1018,4 hPa 0,0 l/m 5,6 km/h (1 Bft) W-SW 12,0 C 14,9 C
18.07.2012 01:00 14,9 C 85 % 1018,3 hPa 0,0 l/m 10,9 km/h (2 Bft) W-SW 12,4 C 14,9 C
18.07.2012 02:00 14,6 C 86 % 1018,1 hPa 0,0 l/m 9,1 km/h (2 Bft) W-SW 12,3 C 14,6 C
18.07.2012 03:00 14,4 C 87 % 1017,7 hPa 0,0 l/m 8,0 km/h (2 Bft) W 12,3 C 14,4 C
18.07.2012 04:00 14,4 C 88 % 1017,1 hPa 0,0 l/m 7,9 km/h (2 Bft) W-SW 12,4 C 14,4 C
18.07.2012 05:00 14,6 C 89 % 1016,5 hPa 0,0 l/m 4,6 km/h (1 Bft) W-SW 12,8 C 14,6 C
18.07.2012 06:00 14,9 C 90 % 1016,1 hPa 0,0 l/m 6,4 km/h (2 Bft) SW 13,2 C 14,9 C
18.07.2012 07:00 14,9 C 90 % 1015,8 hPa 0,5 l/m 6,3 km/h (2 Bft) W-SW 13,3 C 14,9 C
18.07.2012 08:00 14,9 C 90 % 1015,6 hPa 1,0 l/m 8,1 km/h (2 Bft) W-SW 13,3 C 14,9 C
18.07.2012 09:00 15,1 C 90 % 1015,2 hPa 1,0 l/m 4,6 km/h (1 Bft) W-SW 13,5 C 15,1 C
18.07.2012 10:00 15,8 C 90 % 1014,6 hPa 0,5 l/m 3,5 km/h (1 Bft) S-SW 14,1 C 15,8 C
18.07.2012 11:00 16,3 C 91 % 1014,1 hPa 0,0 l/m 4,2 km/h (1 Bft) S-SW 14,8 C 16,3 C
18.07.2012 12:00 17,0 C 90 % 1013,6 hPa 2,1 l/m 5,0 km/h (1 Bft) S-SW 15,4 C 17,0 C
18.07.2012 13:00 17,7 C 90 % 1013,3 hPa 1,6 l/m 7,3 km/h (2 Bft) W-SW 16,1 C 17,7 C
18.07.2012 14:00 17,6 C 89 % 1012,6 hPa 3,6 l/m 8,0 km/h (2 Bft) W-SW 15,9 C 17,6 C
18.07.2012 15:00 20,1 C 85 % 1011,9 hPa 0,0 l/m 5,9 km/h (2 Bft) W-SW 17,6 C 20,1 C
18.07.2012 16:00 21,2 C 80 % 1011,1 hPa 0,0 l/m 8,6 km/h (2 Bft) SW 17,6 C 21,2 C
18.07.2012 17:00 21,1 C 74 % 1010,4 hPa 0,0 l/m 11,0 km/h (2 Bft) W-SW 16,2 C 21,1 C
18.07.2012 18:00 22,0 C 66 % 1009,5 hPa 0,0 l/m 10,6 km/h (2 Bft) W-SW 15,4 C 22,0 C
18.07.2012 19:00 21,8 C 66 % 1008,9 hPa 0,0 l/m 7,5 km/h (2 Bft) W-SW 15,2 C 21,8 C
18.07.2012 20:00 20,8 C 67 % 1008,4 hPa 0,0 l/m 4,3 km/h (1 Bft) W-SW 14,5 C 20,8 C
18.07.2012 21:00 19,0 C 74 % 1008,0 hPa 0,0 l/m 3,1 km/h (1 Bft) SW 14,3 C 19,0 C
18.07.2012 22:00 18,0 C 79 % 1008,0 hPa 1,0 l/m 3,5 km/h (1 Bft) SW 14,4 C 18,0 C
18.07.2012 23:00 16,7 C 87 % 1007,7 hPa 2,1 l/m 3,3 km/h (1 Bft) W-SW 14,6 C 16,7 C
19.07.2012 00:00 16,3 C 90 % 1007,4 hPa 0,0 l/m 3,9 km/h (1 Bft) W-SW 14,6 C 16,3 C
19.07.2012 01:00 15,8 C 91 % 1007,4 hPa 0,0 l/m 2,4 km/h (1 Bft) W-NW 14,2 C 15,8 C
19.07.2012 02:00 15,1 C 91 % 1007,0 hPa 0,0 l/m 1,9 km/h (1 Bft) W 13,7 C 15,1 C
19.07.2012 03:00 14,7 C 91 % 1006,6 hPa 0,0 l/m 1,4 km/h (1 Bft) W-SW 13,2 C 14,7 C
19.07.2012 04:00 14,8 C 90 % 1006,0 hPa 0,5 l/m 8,5 km/h (2 Bft) W-SW 13,2 C 14,8 C
19.07.2012 05:00 14,6 C 89 % 1005,5 hPa 0,0 l/m 4,3 km/h (1 Bft) W-SW 12,9 C 14,6 C
19.07.2012 06:00 14,9 C 90 % 1005,1 hPa 0,0 l/m 4,0 km/h (1 Bft) W-SW 13,3 C 14,9 C
19.07.2012 07:00 15,5 C 88 % 1004,7 hPa 0,0 l/m 9,4 km/h (2 Bft) W-SW 13,6 C 15,5 C
19.07.2012 08:00 15,6 C 90 % 1004,3 hPa 1,0 l/m 4,4 km/h (1 Bft) SW 13,9 C 15,6 C
19.07.2012 09:00 16,0 C 89 % 1004,0 hPa 1,6 l/m 8,7 km/h (2 Bft) W-SW 14,1 C 16,0 C
19.07.2012 10:00 16,2 C 90 % 1003,9 hPa 2,1 l/m 9,3 km/h (2 Bft) W-SW 14,5 C 16,2 C
19.07.2012 11:00 16,4 C 89 % 1003,9 hPa 1,0 l/m 13,8 km/h (3 Bft) W-SW 14,7 C 16,4 C
19.07.2012 12:00 19,1 C 79 % 1003,9 hPa 0,0 l/m 19,2 km/h (3 Bft) W-SW 15,3 C 19,1 C
19.07.2012 13:00 19,6 C 72 % 1004,0 hPa 0,0 l/m 18,6 km/h (3 Bft) W-SW 14,4 C 19,6 C
19.07.2012 14:00 18,2 C 71 % 1004,7 hPa 2,1 l/m 11,6 km/h (2 Bft) W 12,7 C 18,2 C
19.07.2012 15:00 19,0 C 73 % 1004,6 hPa 0,0 l/m 6,5 km/h (2 Bft) W-SW 14,1 C 19,0 C
19.07.2012 16:00 18,4 C 71 % 1004,8 hPa 3,6 l/m 17,7 km/h (3 Bft) W-SW 12,9 C 18,4 C
19.07.2012 17:00 15,9 C 83 % 1005,2 hPa 0,0 l/m 18,6 km/h (3 Bft) W-SW 12,9 C 15,9 C
19.07.2012 18:00 16,6 C 79 % 1005,6 hPa 0,0 l/m 16,4 km/h (3 Bft) W-SW 13,0 C 16,6 C
19.07.2012 19:00 15,9 C 83 % 1006,1 hPa 0,5 l/m 15,8 km/h (3 Bft) W-SW 13,0 C 15,9 C
19.07.2012 20:00 15,3 C 83 % 1006,4 hPa 0,0 l/m 16,1 km/h (3 Bft) W-SW 12,4 C 15,3 C
19.07.2012 21:00 14,3 C 86 % 1006,8 hPa 0,0 l/m 17,8 km/h (3 Bft) W-SW 12,0 C 14,3 C
19.07.2012 22:00 14,0 C 85 % 1007,3 hPa 0,0 l/m 18,1 km/h (3 Bft) W-SW 11,5 C 14,0 C
19.07.2012 23:00 13,7 C 83 % 1007,7 hPa 0,0 l/m 19,4 km/h (3 Bft) W-SW 10,8 C 13,7 C
20.07.2012 00:00 13,3 C 81 % 1008,1 hPa 0,0 l/m 14,5 km/h (3 Bft) W 10,2 C 13,3 C
20.07.2012 01:00 13,1 C 79 % 1008,7 hPa 0,0 l/m 15,3 km/h (3 Bft) W-NW 9,5 C 13,1 C
20.07.2012 02:00 12,9 C 80 % 1009,0 hPa 0,0 l/m 12,4 km/h (3 Bft) W-SW 9,6 C 12,9 C
20.07.2012 03:00 12,6 C 81 % 1009,4 hPa 0,0 l/m 18,1 km/h (3 Bft) W-SW 9,5 C 12,6 C
20.07.2012 04:00 12,1 C 83 % 1010,1 hPa 0,0 l/m 13,0 km/h (3 Bft) W-SW 9,3 C 12,1 C
20.07.2012 05:00 11,8 C 84 % 1010,7 hPa 0,0 l/m 15,2 km/h (3 Bft) W 9,1 C 11,8 C
20.07.2012 06:00 13,1 C 80 % 1011,1 hPa 0,0 l/m 15,0 km/h (3 Bft) W 9,7 C 13,1 C
20.07.2012 07:00 17,0 C 67 % 1011,6 hPa 0,0 l/m 13,8 km/h (3 Bft) W-SW 10,8 C 17,0 C
20.07.2012 08:00 16,0 C 71 % 1012,2 hPa 0,0 l/m 12,1 km/h (2 Bft) W-SW 10,6 C 16,0 C
20.07.2012 09:00 16,9 C 68 % 1012,9 hPa 0,0 l/m 15,0 km/h (3 Bft) W-SW 10,9 C 16,9 C
20.07.2012 10:00 17,7 C 65 % 1013,3 hPa 0,0 l/m 16,3 km/h (3 Bft) W-SW 11,0 C 17,7 C
20.07.2012 11:00 18,7 C 60 % 1013,4 hPa 0,0 l/m 12,2 km/h (3 Bft) W-SW 10,7 C 18,7 C
20.07.2012 12:00 19,2 C 54 % 1013,4 hPa 0,0 l/m 14,8 km/h (3 Bft) W 9,6 C 19,2 C
20.07.2012 13:00 18,9 C 54 % 1013,5 hPa 0,0 l/m 10,2 km/h (2 Bft) W 9,4 C 18,9 C
20.07.2012 14:00 19,6 C 53 % 1013,7 hPa 0,0 l/m 13,6 km/h (3 Bft) W-SW 9,6 C 19,6 C
20.07.2012 15:00 19,8 C 50 % 1013,7 hPa 0,0 l/m 7,9 km/h (2 Bft) W-NW 9,1 C 19,8 C
20.07.2012 16:00 20,5 C 49 % 1013,8 hPa 0,0 l/m 7,4 km/h (2 Bft) W-NW 9,3 C 20,5 C
20.07.2012 17:00 19,2 C 53 % 1014,1 hPa 0,0 l/m 7,2 km/h (2 Bft) W-NW 9,5 C 19,2 C
20.07.2012 18:00 19,5 C 53 % 1014,1 hPa 0,0 l/m 13,5 km/h (3 Bft) W 9,6 C 19,5 C
20.07.2012 19:00 17,6 C 55 % 1014,5 hPa 0,0 l/m 9,5 km/h (2 Bft) W-NW 8,5 C 17,6 C
20.07.2012 20:00 16,6 C 58 % 1015,0 hPa 0,0 l/m 5,8 km/h (1 Bft) W-NW 8,2 C 16,6 C
20.07.2012 21:00 15,1 C 65 % 1015,4 hPa 0,0 l/m 1,9 km/h (1 Bft) W 8,5 C 15,1 C
20.07.2012 22:00 13,2 C 73 % 1015,9 hPa 0,0 l/m 0,9 km/h (0 Bft) W-SW 8,6 C 13,2 C
20.07.2012 23:00 13,1 C 76 % 1016,3 hPa 0,0 l/m 2,4 km/h (1 Bft) W-NW 8,9 C 13,1 C
21.07.2012 00:00 12,2 C 78 % 1016,7 hPa 0,0 l/m 2,3 km/h (1 Bft) W-NW 8,5 C 12,2 C
21.07.2012 01:00 11,2 C 81 % 1016,9 hPa 0,0 l/m 2,2 km/h (1 Bft) W 8,1 C 11,2 C
21.07.2012 02:00 10,9 C 82 % 1017,0 hPa 0,0 l/m 3,1 km/h (1 Bft) W-SW 8,1 C 10,9 C
21.07.2012 03:00 10,6 C 84 % 1017,2 hPa 0,0 l/m 3,1 km/h (1 Bft) W-SW 7,9 C 10,6 C
21.07.2012 04:00 10,1 C 85 % 1017,2 hPa 0,0 l/m 3,6 km/h (1 Bft) W-NW 7,7 C 10,1 C
21.07.2012 05:00 10,3 C 85 % 1017,7 hPa 0,0 l/m 3,4 km/h (1 Bft) W-NW 7,9 C 10,3 C
21.07.2012 06:00 11,0 C 85 % 1018,2 hPa 0,0 l/m 5,6 km/h (1 Bft) W-SW 8,6 C 11,0 C
21.07.2012 07:00 12,1 C 83 % 1018,6 hPa 0,0 l/m 4,2 km/h (1 Bft) W-NW 9,3 C 12,1 C
21.07.2012 08:00 13,8 C 78 % 1019,2 hPa 0,0 l/m 4,7 km/h (1 Bft) W 10,1 C 13,8 C
21.07.2012 09:00 17,0 C 66 % 1019,3 hPa 0,0 l/m 6,2 km/h (2 Bft) NW 10,6 C 17,0 C
21.07.2012 10:00 16,8 C 61 % 1019,4 hPa 0,0 l/m 6,1 km/h (2 Bft) NW 9,1 C 16,8 C
21.07.2012 11:00 17,6 C 55 % 1019,5 hPa 0,0 l/m 7,5 km/h (2 Bft) W 8,6 C 17,6 C
21.07.2012 12:00 19,0 C 52 % 1019,4 hPa 0,0 l/m 9,3 km/h (2 Bft) W-NW 8,9 C 19,0 C
21.07.2012 13:00 18,2 C 53 % 1019,5 hPa 0,0 l/m 7,9 km/h (2 Bft) N-NW 8,4 C 18,2 C
21.07.2012 14:00 17,9 C 55 % 1019,7 hPa 0,0 l/m 9,1 km/h (2 Bft) N-NO 8,7 C 17,9 C
21.07.2012 15:00 20,0 C 50 % 1019,9 hPa 0,0 l/m 9,1 km/h (2 Bft) W-SW 9,2 C 20,0 C
21.07.2012 16:00 21,2 C 44 % 1020,1 hPa 0,0 l/m 14,8 km/h (3 Bft) NW 8,5 C 21,2 C
21.07.2012 17:00 19,4 C 48 % 1020,6 hPa 0,0 l/m 8,8 km/h (2 Bft) N-NW 8,0 C 19,4 C
21.07.2012 18:00 20,0 C 47 % 1020,7 hPa 0,0 l/m 9,2 km/h (2 Bft) NW 8,4 C 20,0 C
21.07.2012 19:00 19,4 C 48 % 1021,1 hPa 0,0 l/m 8,3 km/h (2 Bft) W-NW 8,0 C 19,4 C
21.07.2012 20:00 17,8 C 53 % 1021,5 hPa 0,0 l/m 6,5 km/h (2 Bft) NW 8,0 C 17,8 C
21.07.2012 21:00 14,8 C 63 % 1022,2 hPa 0,0 l/m 3,4 km/h (1 Bft) NW 7,9 C 14,8 C
21.07.2012 22:00 13,5 C 68 % 1022,8 hPa 0,0 l/m 2,7 km/h (1 Bft) W-NW 7,7 C 13,5 C
21.07.2012 23:00 12,6 C 72 % 1023,3 hPa 0,0 l/m 4,1 km/h (1 Bft) W-NW 7,6 C 12,6 C
22.07.2012 00:00 12,3 C 73 % 1023,7 hPa 0,0 l/m 3,7 km/h (1 Bft) W-NW 7,7 C 12,3 C
22.07.2012 01:00 12,1 C 75 % 1024,0 hPa 0,0 l/m 2,7 km/h (1 Bft) W-NW 7,9 C 12,1 C
22.07.2012 02:00 11,9 C 78 % 1024,4 hPa 0,0 l/m 4,2 km/h (1 Bft) NW 8,1 C 11,9 C
22.07.2012 03:00 11,6 C 81 % 1024,7 hPa 0,0 l/m 3,8 km/h (1 Bft) NW 8,3 C 11,6 C
22.07.2012 04:00 11,1 C 83 % 1025,0 hPa 0,0 l/m 3,8 km/h (1 Bft) NW 8,4 C 11,1 C
22.07.2012 05:00 10,9 C 86 % 1025,4 hPa 0,0 l/m 3,5 km/h (1 Bft) NW 8,6 C 10,9 C
22.07.2012 06:00 15,4 C 74 % 1025,9 hPa 0,0 l/m 5,1 km/h (1 Bft) NW 10,6 C 15,4 C
22.07.2012 07:00 17,3 C 66 % 1026,5 hPa 0,0 l/m 4,5 km/h (1 Bft) N-NO 10,8 C 17,3 C
22.07.2012 08:00 16,0 C 71 % 1027,3 hPa 0,0 l/m 4,4 km/h (1 Bft) N-NO 10,6 C 16,0 C
22.07.2012 09:00 16,8 C 66 % 1027,5 hPa 0,0 l/m 5,7 km/h (1 Bft) N 10,5 C 16,8 C
22.07.2012 10:00 18,2 C 58 % 1027,8 hPa 0,0 l/m 7,3 km/h (2 Bft) N-NO 9,9 C 18,2 C
22.07.2012 11:00 18,8 C 54 % 1028,1 hPa 0,0 l/m 8,6 km/h (2 Bft) N-NW 9,3 C 18,8 C
22.07.2012 12:00 20,1 C 49 % 1028,1 hPa 0,0 l/m 7,3 km/h (2 Bft) N 8,8 C 20,1 C
22.07.2012 13:00 21,5 C 44 % 1027,9 hPa 0,0 l/m 5,9 km/h (2 Bft) N-NO 8,5 C 21,5 C
22.07.2012 14:00 21,8 C 42 % 1028,2 hPa 0,0 l/m 6,1 km/h (2 Bft) N-NO 8,4 C 21,8 C
22.07.2012 15:00 21,3 C 43 % 1028,2 hPa 0,0 l/m 5,5 km/h (1 Bft) W-NW 8,0 C 21,3 C
22.07.2012 16:00 22,4 C 41 % 1028,2 hPa 0,0 l/m 5,6 km/h (1 Bft) NW 8,4 C 22,4 C
22.07.2012 17:00 22,0 C 42 % 1028,2 hPa 0,0 l/m 4,8 km/h (1 Bft) NW 8,4 C 22,0 C
22.07.2012 18:00 22,3 C 41 % 1028,3 hPa 0,0 l/m 4,1 km/h (1 Bft) N 8,3 C 22,3 C
22.07.2012 19:00 22,3 C 43 % 1028,4 hPa 0,0 l/m 2,2 km/h (1 Bft) W 9,0 C 22,3 C
22.07.2012 20:00 20,6 C 47 % 1028,5 hPa 0,0 l/m 0,5 km/h (0 Bft) N-NW 8,8 C 20,6 C
22.07.2012 21:00 17,1 C 61 % 1028,7 hPa 0,0 l/m 0,0 km/h (0 Bft) N 9,4 C 17,1 C
22.07.2012 22:00 15,0 C 69 % 1029,2 hPa 0,0 l/m 0,0 km/h (0 Bft) N 9,4 C 15,0 C
22.07.2012 23:00 13,7 C 74 % 1029,5 hPa 0,0 l/m 0,0 km/h (0 Bft) N 9,2 C 13,7 C
Min-Datum _ 21.07.12 22.07.12 19.07.12 - 16.07.12 - 22.07.12 21.07.12
_ Min-Zeit 04:36 16:56 12:06 - 00:01 - 15:56 04:36
Minimum _ 10,0 C 38 % 1003,5 hPa - 0,0 km/h (0 Bft) - 7,2 C 10,0 C
Max-Datum _ 22.07.12 17.07.12 22.07.12 19.07.12 19.07.12 - 18.07.12 22.07.12
_ Max-Zeit 16:56 04:11 23:46 16:36 13:51 - 16:01 16:56
Maximum _ 23,9 C 91 % 1029,6 hPa 3,6 l/m 36,0 km/h
W-SW (5 Bft)
- 18,1 C 23,9 C
Durchschnitt _ 16,4 C 73 % 1016,3 hPa #37,8 l/m 8,1 km/h (2 Bft) W-SW 11,1 C 16,4 C
(c) by David Heller